Cathma — PJTL — position and weather

sailwx.info

Track history (hours):
 
Tides and Currents Weather Stations Pressure Air Temp Water Temp Dewpoint Dewpoint Depression Visibility Wind Speed Wind Dir Waves Ship Positions

Cathma

Last reported at 2014-Aug-19 06:29 UTC. Time now 2014-Aug-21 12:09 UTC.
Position N 63°31' W 022°09'.

Length 111 m; draft 4.3 m.

Type: Ship. MMSI: 306832000.

Date/timePositionNaut miles runAvg speedWind from/ knotsBaromVisibWave heightAir tempDewpointWater temp
2014-Aug-19 06:29N 63°31' W 022°09'41 8.2
2014-Aug-19 01:30N 64°10' W 022°41'1010.3
2014-Aug-19 00:33N 64°10' W 022°19'1010.2
2014-Aug-18 23:34N 64°11' W 021°56'4 3.8
2014-Aug-18 22:29N 64°08' W 021°50'0 0.0
2014-Aug-18 21:32N 64°08' W 021°50'0 0.0
2014-Aug-18 20:29N 64°08' W 021°50'0 0.0
2014-Aug-18 19:28N 64°08' W 021°50'0 0.0
2014-Aug-18 18:28N 64°08' W 021°50'0 0.0
2014-Aug-18 17:33N 64°08' W 021°50'0 0.0
2014-Aug-18 16:33N 64°08' W 021°50'0 0.0
2014-Aug-18 15:32N 64°08' W 021°50'0 0.0
2014-Aug-18 14:32N 64°08' W 021°50'0 0.0
2014-Aug-18 13:32N 64°08' W 021°50'0 0.0
2014-Aug-18 12:31N 64°08' W 021°50'0 0.0
2014-Aug-18 11:31N 64°08' W 021°50'0 0.0
2014-Aug-18 10:33N 64°08' W 021°50'0 0.0
2014-Aug-18 09:30N 64°08' W 021°50'0 0.0
2014-Aug-18 08:32N 64°08' W 021°50'0 0.0
2014-Aug-18 07:32N 64°08' W 021°50'0 0.0
2014-Aug-18 06:31N 64°08' W 021°50'0 0.0
2014-Aug-18 05:31N 64°08' W 021°50'0 0.0
2014-Aug-18 04:28N 64°08' W 021°50'0 0.0
2014-Aug-18 03:30N 64°08' W 021°50'0 0.0
2014-Aug-18 02:33N 64°08' W 021°50'0 0.0
2014-Aug-18 01:29N 64°08' W 021°50'0 0.0
2014-Aug-18 00:23N 64°08' W 021°50'0 0.0
2014-Aug-17 18:32N 64°08' W 021°50'0 0.0
2014-Aug-17 17:32N 64°08' W 021°50'0 0.0
2014-Aug-17 16:28N 64°08' W 021°50'0 0.0
2014-Aug-17 15:31N 64°08' W 021°50'0 0.0
2014-Aug-17 14:31N 64°08' W 021°50'0 0.0
2014-Aug-17 13:30N 64°08' W 021°50'0 0.0
2014-Aug-17 12:33N 64°08' W 021°50'0 0.0
2014-Aug-17 11:32N 64°08' W 021°50'0 0.0
2014-Aug-17 10:32N 64°08' W 021°50'0 0.0
2014-Aug-17 09:31N 64°08' W 021°50'0 0.0
2014-Aug-17 08:31N 64°08' W 021°50'0 0.0
2014-Aug-17 07:31N 64°08' W 021°50'0 0.0
2014-Aug-17 06:33N 64°08' W 021°50'0 0.0
2014-Aug-17 05:33N 64°08' W 021°50'0 0.0
2014-Aug-17 04:32N 64°08' W 021°50'0 0.0
2014-Aug-17 03:29N 64°08' W 021°50'0 0.0
2014-Aug-17 02:25N 64°08' W 021°50'0 0.0
2014-Aug-17 01:31N 64°08' W 021°50'0 0.0
2014-Aug-17 00:31N 64°08' W 021°50'0 0.0
2014-Aug-16 23:33N 64°08' W 021°50'0 0.0
2014-Aug-16 22:33N 64°08' W 021°50'0 0.0
2014-Aug-16 21:32N 64°08' W 021°50'0 0.0
2014-Aug-16 20:32N 64°08' W 021°50'0 0.0
2014-Aug-16 19:25N 64°08' W 021°50'0 0.0
2014-Aug-16 18:31N 64°08' W 021°50'0 0.0
2014-Aug-16 17:24N 64°08' W 021°50'0 0.0
2014-Aug-16 16:30N 64°08' W 021°50'  
2014-Aug-10 09:21N 57°47' E 007°11'56 7.8
2014-Aug-10 02:08N 57°47' E 008°57'5 8.5
2014-Aug-10 01:32N 57°47' E 009°06'38 7.4
2014-Aug-09 20:23N 57°48' E 010°18'6 7.6
2014-Aug-09 19:33N 57°48' E 010°30'9 9.3
2014-Aug-09 18:33N 57°48' E 010°47'9 9.4
2014-Aug-09 17:33N 57°41' E 010°60'20 9.8
2014-Aug-09 15:33N 57°27' E 011°26'1111.0
2014-Aug-09 14:30N 57°17' E 011°33'1010.8
2014-Aug-09 13:33N 57°07' E 011°40'1110.9
2014-Aug-09 12:33N 56°57' E 011°46'1110.9
2014-Aug-09 11:33N 56°47' E 011°53'1110.9
2014-Aug-09 10:33N 56°36' E 011°58'1210.5
2014-Aug-09 09:25N 56°24' E 012°02'1110.3
2014-Aug-09 08:23N 56°15' E 012°12'911.0
2014-Aug-09 07:33N 56°10' E 012°26'1111.2
2014-Aug-09 06:33N 56°02' E 012°40'  
Track history (hours):
 
Tides and Currents Weather Stations Pressure Air Temp Water Temp Dewpoint Dewpoint Depression Visibility Wind Speed Wind Dir Waves Ship Positions

Cathma

Last reported at 2014-Aug-19 06:29 UTC. Time now 2014-Aug-21 12:09 UTC.
Position N 63°31' W 022°09'.

Length 111 m; draft 4.3 m.

Type: Ship. MMSI: 306832000.

Date/timePositionNaut miles runAvg speedWind from/ knotsBaromVisibWave heightAir tempDewpointWater temp
2014-Aug-19 06:29N 63°31' W 022°09'41 8.2
2014-Aug-19 01:30N 64°10' W 022°41'1010.3
2014-Aug-19 00:33N 64°10' W 022°19'1010.2
2014-Aug-18 23:34N 64°11' W 021°56'4 3.8
2014-Aug-18 22:29N 64°08' W 021°50'0 0.0
2014-Aug-18 21:32N 64°08' W 021°50'0 0.0
2014-Aug-18 20:29N 64°08' W 021°50'0 0.0
2014-Aug-18 19:28N 64°08' W 021°50'0 0.0
2014-Aug-18 18:28N 64°08' W 021°50'0 0.0
2014-Aug-18 17:33N 64°08' W 021°50'0 0.0
2014-Aug-18 16:33N 64°08' W 021°50'0 0.0
2014-Aug-18 15:32N 64°08' W 021°50'0 0.0
2014-Aug-18 14:32N 64°08' W 021°50'0 0.0
2014-Aug-18 13:32N 64°08' W 021°50'0 0.0
2014-Aug-18 12:31N 64°08' W 021°50'0 0.0
2014-Aug-18 11:31N 64°08' W 021°50'0 0.0
2014-Aug-18 10:33N 64°08' W 021°50'0 0.0
2014-Aug-18 09:30N 64°08' W 021°50'0 0.0
2014-Aug-18 08:32N 64°08' W 021°50'0 0.0
2014-Aug-18 07:32N 64°08' W 021°50'0 0.0
2014-Aug-18 06:31N 64°08' W 021°50'0 0.0
2014-Aug-18 05:31N 64°08' W 021°50'0 0.0
2014-Aug-18 04:28N 64°08' W 021°50'0 0.0
2014-Aug-18 03:30N 64°08' W 021°50'0 0.0
2014-Aug-18 02:33N 64°08' W 021°50'0 0.0
2014-Aug-18 01:29N 64°08' W 021°50'0 0.0
2014-Aug-18 00:23N 64°08' W 021°50'0 0.0
2014-Aug-17 18:32N 64°08' W 021°50'0 0.0
2014-Aug-17 17:32N 64°08' W 021°50'0 0.0
2014-Aug-17 16:28N 64°08' W 021°50'0 0.0
2014-Aug-17 15:31N 64°08' W 021°50'0 0.0
2014-Aug-17 14:31N 64°08' W 021°50'0 0.0
2014-Aug-17 13:30N 64°08' W 021°50'0 0.0
2014-Aug-17 12:33N 64°08' W 021°50'0 0.0
2014-Aug-17 11:32N 64°08' W 021°50'0 0.0
2014-Aug-17 10:32N 64°08' W 021°50'0 0.0
2014-Aug-17 09:31N 64°08' W 021°50'0 0.0
2014-Aug-17 08:31N 64°08' W 021°50'0 0.0
2014-Aug-17 07:31N 64°08' W 021°50'0 0.0
2014-Aug-17 06:33N 64°08' W 021°50'0 0.0
2014-Aug-17 05:33N 64°08' W 021°50'0 0.0
2014-Aug-17 04:32N 64°08' W 021°50'0 0.0
2014-Aug-17 03:29N 64°08' W 021°50'0 0.0
2014-Aug-17 02:25N 64°08' W 021°50'0 0.0
2014-Aug-17 01:31N 64°08' W 021°50'0 0.0
2014-Aug-17 00:31N 64°08' W 021°50'0 0.0
2014-Aug-16 23:33N 64°08' W 021°50'0 0.0
2014-Aug-16 22:33N 64°08' W 021°50'0 0.0
2014-Aug-16 21:32N 64°08' W 021°50'0 0.0
2014-Aug-16 20:32N 64°08' W 021°50'0 0.0
2014-Aug-16 19:25N 64°08' W 021°50'0 0.0
2014-Aug-16 18:31N 64°08' W 021°50'0 0.0
2014-Aug-16 17:24N 64°08' W 021°50'0 0.0
2014-Aug-16 16:30N 64°08' W 021°50'  
2014-Aug-10 09:21N 57°47' E 007°11'56 7.8
2014-Aug-10 02:08N 57°47' E 008°57'5 8.5
2014-Aug-10 01:32N 57°47' E 009°06'38 7.4
2014-Aug-09 20:23N 57°48' E 010°18'6 7.6
2014-Aug-09 19:33N 57°48' E 010°30'9 9.3
2014-Aug-09 18:33N 57°48' E 010°47'9 9.4
2014-Aug-09 17:33N 57°41' E 010°60'20 9.8
2014-Aug-09 15:33N 57°27' E 011°26'1111.0
2014-Aug-09 14:30N 57°17' E 011°33'1010.8
2014-Aug-09 13:33N 57°07' E 011°40'1110.9
2014-Aug-09 12:33N 56°57' E 011°46'1110.9
2014-Aug-09 11:33N 56°47' E 011°53'1110.9
2014-Aug-09 10:33N 56°36' E 011°58'1210.5
2014-Aug-09 09:25N 56°24' E 012°02'1110.3
2014-Aug-09 08:23N 56°15' E 012°12'911.0
2014-Aug-09 07:33N 56°10' E 012°26'1111.2
2014-Aug-09 06:33N 56°02' E 012°40'  

Dump ship's entire track history